Time;durP1;ratioP1;P1;durP2;ratioP2;P2;SDS_P1;SDS_P2;PMS_P1;PMS_P2;Temp;Humidity;BMP_temperature;BMP_pressure;BME280_temperature;BME280_humidity;BME280_pressure;Samples;Min_cycle;Max_cycle;Signal;HPM_P1;HPM_P2
2021/05/10 00:01:54;;;;;;;12.20;9.07;;;;;;;19.34;61.85;99978.03;5000331;28;20336;-74
2021/05/10 00:04:19;;;;;;;14.25;9.57;;;;;;;19.26;62.23;99973.84;4999470;28;20057;-74
2021/05/10 00:06:46;;;;;;;12.00;9.10;;;;;;;19.27;62.07;99970.16;5000069;28;20050;-75
2021/05/10 00:09:12;;;;;;;16.83;9.18;;;;;;;19.25;62.46;99961.59;4996302;28;20058;-74
2021/05/10 00:11:38;;;;;;;11.05;9.52;;;;;;;19.18;62.66;99950.22;5001317;28;20187;-74
2021/05/10 00:14:05;;;;;;;12.80;9.63;;;;;;;19.17;62.60;99956.59;4994407;28;20054;-74
2021/05/10 00:16:32;;;;;;;13.50;9.60;;;;;;;19.17;62.39;99964.56;5002310;28;20054;-74
2021/05/10 00:18:59;;;;;;;12.23;8.98;;;;;;;19.12;63.09;99954.59;4988381;28;20054;-74
2021/05/10 00:21:26;;;;;;;12.82;9.43;;;;;;;19.14;62.37;99949.06;5002511;28;20488;-74
2021/05/10 00:23:52;;;;;;;12.52;9.27;;;;;;;19.13;62.68;99964.19;4985161;28;20084;-74
2021/05/10 00:26:18;;;;;;;13.23;9.23;;;;;;;19.08;62.13;99947.31;5002602;28;20050;-74
2021/05/10 00:28:44;;;;;;;12.35;9.40;;;;;;;19.10;62.42;99942.56;4999580;28;20080;-74
2021/05/10 00:31:10;;;;;;;13.93;8.80;;;;;;;19.12;63.17;99945.81;5000603;28;20077;-74
2021/05/10 00:33:36;;;;;;;10.35;8.25;;;;;;;19.09;63.13;99940.94;4997442;28;20112;-75
2021/05/10 00:36:03;;;;;;;14.25;8.73;;;;;;;19.04;63.32;99938.16;4997929;28;20145;-74
2021/05/10 00:38:28;;;;;;;11.20;9.20;;;;;;;19.01;63.65;99936.72;4991217;28;20081;-75
2021/05/10 00:40:54;;;;;;;12.50;9.07;;;;;;;18.93;63.86;99943.19;4999168;28;20201;-75
2021/05/10 00:43:20;;;;;;;14.48;9.15;;;;;;;18.91;63.52;99945.22;4999473;28;20057;-74
2021/05/10 00:45:47;;;;;;;12.27;8.75;;;;;;;18.87;64.31;99938.75;5005265;28;20775;-74
2021/05/10 00:48:14;;;;;;;11.93;9.40;;;;;;;18.82;63.81;99941.28;4995537;28;20489;-74
2021/05/10 00:50:40;;;;;;;14.25;9.02;;;;;;;18.84;63.74;99933.88;4999832;28;20062;-75
2021/05/10 00:53:06;;;;;;;12.70;8.75;;;;;;;18.81;63.89;99928.19;4990610;28;20081;-75
2021/05/10 00:55:32;;;;;;;12.15;8.98;;;;;;;18.82;63.60;99928.00;5009521;28;20076;-75
2021/05/10 00:58:03;;;;;;;14.55;9.55;;;;;;;18.83;63.56;99924.28;4993373;28;20095;-74
2021/05/10 01:00:36;;;;;;;12.30;9.52;;;;;;;18.81;63.48;99917.56;5002142;28;20100;-74
2021/05/10 01:03:02;;;;;;;11.82;8.95;;;;;;;18.78;63.98;99921.47;4997570;28;20058;-74
2021/05/10 01:05:29;;;;;;;12.55;8.52;;;;;;;18.77;63.96;99906.53;4989127;28;20137;-74
2021/05/10 01:07:55;;;;;;;15.77;9.32;;;;;;;18.75;64.05;99905.97;4993946;28;20935;-74
2021/05/10 01:10:23;;;;;;;11.90;10.48;;;;;;;18.72;64.47;99903.75;4986562;28;20116;-74
2021/05/10 01:12:49;;;;;;;14.77;11.60;;;;;;;18.70;63.88;99896.00;4998973;28;20101;-74
2021/05/10 01:15:18;;;;;;;16.77;11.13;;;;;;;18.70;64.27;99897.84;4990330;28;20124;-74
2021/05/10 01:17:45;;;;;;;21.95;12.32;;;;;;;18.68;64.33;99895.41;5000810;28;20085;-74
2021/05/10 01:20:14;;;;;;;13.32;10.73;;;;;;;18.62;64.39;99895.47;4988464;28;20057;-75
2021/05/10 01:22:44;;;;;;;12.40;11.10;;;;;;;18.63;64.46;99894.47;4990857;28;20513;-75
2021/05/10 01:25:44;;;;;;;15.93;11.15;;;;;;;18.58;65.23;99895.94;4995785;28;20077;-75
2021/05/10 01:28:10;;;;;;;17.65;11.48;;;;;;;18.53;65.01;99900.28;4986724;28;20152;-75
2021/05/10 01:30:42;;;;;;;16.60;11.18;;;;;;;18.52;65.29;99901.31;5001546;28;20085;-75
2021/05/10 01:33:09;;;;;;;13.02;10.95;;;;;;;18.50;65.18;99895.41;4991446;28;20073;-74
2021/05/10 01:35:46;;;;;;;18.95;11.45;;;;;;;18.45;65.08;99890.78;4996546;28;20062;-74
2021/05/10 01:38:14;;;;;;;14.50;10.27;;;;;;;18.44;65.26;99888.31;4988505;28;20097;-74
2021/05/10 01:40:41;;;;;;;15.85;11.65;;;;;;;18.40;65.95;99884.50;5000927;28;20046;-74
2021/05/10 01:43:07;;;;;;;16.63;11.35;;;;;;;18.32;65.69;99886.41;5002072;28;20552;-74
2021/05/10 01:45:34;;;;;;;11.85;10.30;;;;;;;18.33;65.71;99882.72;4991498;28;20509;-75
2021/05/10 01:48:06;;;;;;;12.40;9.95;;;;;;;18.32;65.82;99875.78;4991782;28;20050;-75
2021/05/10 01:50:33;;;;;;;12.40;9.90;;;;;;;18.31;65.98;99876.81;4986173;28;20130;-75
2021/05/10 01:52:59;;;;;;;13.77;10.67;;;;;;;18.30;65.90;99874.38;4999091;28;20057;-76
2021/05/10 01:55:26;;;;;;;13.48;10.23;;;;;;;18.31;65.70;99871.50;4991919;28;20086;-74
2021/05/10 01:58:04;;;;;;;12.07;9.75;;;;;;;18.29;65.63;99870.94;5001696;28;20096;-74
2021/05/10 02:00:32;;;;;;;12.25;9.27;;;;;;;18.30;65.39;99869.88;4994269;28;20180;-74
2021/05/10 02:03:03;;;;;;;12.70;9.23;;;;;;;18.25;66.04;99863.59;4988011;28;20781;-74
2021/05/10 02:05:30;;;;;;;16.88;9.30;;;;;;;18.26;66.01;99865.25;4998242;28;20065;-74
2021/05/10 02:07:59;;;;;;;15.65;9.63;;;;;;;18.23;65.87;99868.31;4996513;28;20100;-74
2021/05/10 02:10:28;;;;;;;15.18;9.55;;;;;;;18.14;66.30;99867.81;4997908;28;20559;-74
2021/05/10 02:13:04;;;;;;;13.10;9.77;;;;;;;18.09;66.50;99865.81;4994997;28;20103;-75
2021/05/10 02:15:33;;;;;;;15.05;9.50;;;;;;;18.05;65.80;99861.16;4995762;28;20081;-75
2021/05/10 02:18:00;;;;;;;11.13;8.90;;;;;;;18.02;66.36;99857.09;4999935;28;20569;-74
2021/05/10 02:20:27;;;;;;;11.80;9.07;;;;;;;18.03;66.61;99852.59;4994736;28;20135;-74
2021/05/10 02:22:55;;;;;;;15.85;9.23;;;;;;;18.01;66.30;99854.66;4999012;28;20054;-74
2021/05/10 02:25:24;;;;;;;12.30;9.43;;;;;;;17.97;66.64;99852.47;4992425;28;20144;-75
2021/05/10 02:27:51;;;;;;;13.10;8.55;;;;;;;17.97;66.75;99852.47;5006682;28;20077;-74
2021/05/10 02:30:22;;;;;;;12.65;8.95;;;;;;;17.94;66.67;99852.88;4986867;28;20073;-74
2021/05/10 02:32:50;;;;;;;14.15;9.23;;;;;;;17.91;66.82;99853.31;4996923;28;20129;-75
2021/05/10 02:35:16;;;;;;;11.57;8.50;;;;;;;17.85;67.03;99848.88;4999902;28;20046;-75
2021/05/10 02:37:42;;;;;;;10.27;8.70;;;;;;;17.81;67.55;99852.97;4994787;28;20131;-75
2021/05/10 02:40:09;;;;;;;11.85;9.63;;;;;;;17.76;67.24;99848.31;5004952;28;20111;-75
2021/05/10 02:42:36;;;;;;;11.23;9.37;;;;;;;17.71;67.42;99848.16;4984567;28;20472;-75
2021/05/10 02:45:05;;;;;;;10.80;9.68;;;;;;;17.70;67.61;99851.84;5000204;28;20489;-75
2021/05/10 02:47:31;;;;;;;13.52;9.63;;;;;;;17.67;67.37;99851.47;4994605;28;20100;-75
2021/05/10 02:49:57;;;;;;;11.23;8.50;;;;;;;17.67;67.57;99852.28;5005030;28;20050;-75
2021/05/10 02:52:24;;;;;;;12.35;8.82;;;;;;;17.64;67.51;99846.59;4999245;28;20082;-75
2021/05/10 02:54:50;;;;;;;11.45;8.85;;;;;;;17.63;67.36;99837.81;5002622;28;20061;-75
2021/05/10 02:57:16;;;;;;;10.43;8.38;;;;;;;17.63;67.82;99837.81;5000147;28;20054;-75
2021/05/10 02:59:43;;;;;;;14.13;8.68;;;;;;;17.62;67.99;99830.91;4995053;28;20104;-74
2021/05/10 03:02:10;;;;;;;10.48;7.95;;;;;;;17.61;67.75;99823.97;4996432;28;20046;-75
2021/05/10 03:04:36;;;;;;;11.18;8.25;;;;;;;17.53;67.89;99817.09;4994945;28;20493;-75
2021/05/10 03:07:02;;;;;;;8.65;5.43;;;;;;;17.54;66.43;99824.03;5001216;28;20470;-75
2021/05/10 03:09:31;;;;;;;8.57;4.75;;;;;;;17.54;64.20;99821.38;4992244;28;20058;-75
2021/05/10 03:11:58;;;;;;;8.82;4.07;;;;;;;17.66;63.47;99832.09;4991581;28;20050;-75
2021/05/10 03:14:24;;;;;;;7.00;3.40;;;;;;;17.73;63.00;99830.19;5000407;28;20081;-75
2021/05/10 03:16:50;;;;;;;6.80;3.17;;;;;;;17.78;62.14;99835.66;4997513;28;20104;-75
2021/05/10 03:19:18;;;;;;;6.28;3.60;;;;;;;17.83;62.34;99828.88;5003857;28;20060;-75
2021/05/10 03:21:45;;;;;;;7.38;3.05;;;;;;;17.85;63.31;99842.78;4994380;28;20058;-74
2021/05/10 03:24:12;;;;;;;7.68;3.10;;;;;;;17.87;63.80;99836.22;5001699;28;20536;-74
2021/05/10 03:26:38;;;;;;;10.07;2.95;;;;;;;17.89;61.62;99823.53;4994350;28;20057;-74
2021/05/10 03:29:06;;;;;;;6.18;2.90;;;;;;;17.91;61.50;99821.47;4999970;28;20089;-74
2021/05/10 03:31:33;;;;;;;4.78;2.58;;;;;;;17.93;59.20;99821.25;4992248;28;20069;-74
2021/05/10 03:33:59;;;;;;;8.45;2.90;;;;;;;17.95;59.78;99817.38;4997640;28;20088;-75
2021/05/10 03:36:26;;;;;;;5.97;2.58;;;;;;;18.01;58.87;99825.47;5002679;28;20057;-75
2021/05/10 03:38:53;;;;;;;5.80;2.42;;;;;;;18.03;59.93;99818.91;4993892;28;20058;-74
2021/05/10 03:41:20;;;;;;;6.90;2.55;;;;;;;18.03;59.22;99810.94;4998024;28;20050;-75
2021/05/10 03:43:46;;;;;;;9.40;3.05;;;;;;;18.05;59.90;99826.66;5017706;28;20136;-75
2021/05/10 03:46:12;;;;;;;8.25;2.60;;;;;;;18.04;59.75;99823.19;4989797;28;20046;-75
2021/05/10 03:48:38;;;;;;;5.15;2.30;;;;;;;18.03;59.45;99818.91;5002072;28;20153;-75
2021/05/10 03:51:04;;;;;;;10.93;2.88;;;;;;;18.04;58.37;99817.91;4992628;28;20149;-75
2021/05/10 03:53:30;;;;;;;5.68;2.20;;;;;;;18.06;58.37;99812.38;4997872;28;20081;-75
2021/05/10 03:55:56;;;;;;;4.03;2.10;;;;;;;18.09;57.07;99809.25;4991220;28;20730;-75
2021/05/10 03:58:22;;;;;;;5.57;2.30;;;;;;;18.23;55.37;99823.19;4999173;28;20064;-75
2021/05/10 04:00:48;;;;;;;7.97;2.20;;;;;;;18.27;55.39;99821.72;4994525;28;20058;-75
2021/05/10 04:03:15;;;;;;;7.90;2.33;;;;;;;18.49;54.25;99822.91;4993930;28;20517;-75
2021/05/10 04:13:45;;;;;;;9.65;2.50;;;;;;;18.82;52.97;99815.56;4997801;28;20084;-75
2021/05/10 04:16:12;;;;;;;7.40;1.83;;;;;;;18.89;52.30;99824.28;4998366;28;20050;-75
2021/05/10 04:18:38;;;;;;;6.75;2.10;;;;;;;18.91;52.69;99819.53;4999795;28;20169;-75
2021/05/10 04:21:04;;;;;;;6.22;1.90;;;;;;;18.91;52.63;99822.19;4991634;28;20089;-75
2021/05/10 04:23:30;;;;;;;8.13;2.13;;;;;;;18.96;51.79;99823.16;5000783;28;20049;-75
2021/05/10 04:25:57;;;;;;;7.78;2.00;;;;;;;18.96;51.97;99811.72;4993741;28;20060;-77
2021/05/10 04:28:23;;;;;;;4.57;1.98;;;;;;;19.03;50.94;99816.91;4992544;28;20054;-74
2021/05/10 04:30:52;;;;;;;6.10;2.10;;;;;;;19.03;51.68;99832.88;4995848;28;20124;-75
2021/05/10 04:33:29;;;;;;;8.30;2.25;;;;;;;19.08;50.85;99820.53;5000529;28;20104;-75
2021/05/10 04:35:55;;;;;;;7.45;2.00;;;;;;;19.10;50.27;99826.44;4991502;28;20133;-74
2021/05/10 04:38:21;;;;;;;7.50;1.90;;;;;;;19.14;50.16;99827.59;5000654;28;20088;-74
2021/05/10 04:40:47;;;;;;;7.80;2.20;;;;;;;19.22;49.91;99841.59;5001045;28;20053;-74
2021/05/10 04:43:14;;;;;;;5.72;2.00;;;;;;;19.22;50.12;99846.91;4994469;28;20133;-75
2021/05/10 04:45:40;;;;;;;8.77;2.22;;;;;;;19.32;49.21;99847.97;5000694;28;20054;-74
2021/05/10 04:48:06;;;;;;;3.72;1.90;;;;;;;19.35;49.11;99846.72;4988950;28;20083;-74
2021/05/10 04:50:32;;;;;;;10.18;2.15;;;;;;;19.35;49.09;99838.75;5014634;28;20498;-75
2021/05/10 04:52:58;;;;;;;6.22;1.95;;;;;;;19.40;49.14;99859.34;4994954;28;20058;-74
2021/05/10 04:55:25;;;;;;;5.35;2.15;;;;;;;19.37;50.15;99855.28;5000787;28;20816;-75
2021/05/10 04:57:50;;;;;;;10.38;2.25;;;;;;;19.36;50.42;99853.66;4996687;28;20081;-74
2021/05/10 05:00:17;;;;;;;6.13;2.03;;;;;;;19.35;50.09;99870.66;4989451;28;20379;-75
2021/05/10 05:02:44;;;;;;;10.75;2.05;;;;;;;19.33;50.54;99881.50;4994215;28;20586;-74
2021/05/10 05:05:12;;;;;;;8.05;1.98;;;;;;;19.27;50.96;99871.00;4992977;28;20057;-74
2021/05/10 05:07:42;;;;;;;9.40;2.20;;;;;;;19.32;49.83;99879.88;4992536;28;20077;-74
2021/05/10 05:10:10;;;;;;;5.10;1.80;;;;;;;19.32;50.07;99892.38;4998481;28;20135;-75
2021/05/10 05:12:39;;;;;;;4.87;2.03;;;;;;;19.31;50.13;99898.75;4998271;28;20049;-74
2021/05/10 05:15:09;;;;;;;7.15;2.17;;;;;;;19.29;50.57;99908.78;4998946;28;20057;-74
2021/05/10 05:17:37;;;;;;;11.30;2.05;;;;;;;19.31;50.66;99923.47;4987978;28;20054;-74
2021/05/10 05:20:04;;;;;;;7.90;2.10;;;;;;;19.30;51.03;99921.84;5000253;28;20896;-74
2021/05/10 05:22:30;;;;;;;8.65;2.13;;;;;;;19.27;51.26;99921.50;4991473;28;20477;-75
2021/05/10 05:24:58;;;;;;;5.97;2.35;;;;;;;19.25;51.88;99921.72;5002602;28;20061;-75
2021/05/10 05:27:25;;;;;;;14.65;2.42;;;;;;;19.20;52.63;99910.94;4992216;28;20077;-74
2021/05/10 05:29:52;;;;;;;8.15;2.33;;;;;;;19.18;52.65;99936.94;5000864;28;20096;-74
2021/05/10 05:32:19;;;;;;;9.32;2.13;;;;;;;19.11;52.87;99923.75;4993863;28;20073;-74
2021/05/10 05:34:45;;;;;;;16.17;2.17;;;;;;;19.07;53.25;99925.22;4994507;28;20058;-75
2021/05/10 05:37:11;;;;;;;16.63;2.50;;;;;;;19.04;53.75;99919.56;5000139;28;20361;-75
2021/05/10 05:39:37;;;;;;;8.85;1.75;;;;;;;18.98;54.05;99917.78;4992231;28;20488;-75
2021/05/10 05:42:03;;;;;;;6.38;1.90;;;;;;;18.93;54.30;99929.91;4994844;28;20144;-75
2021/05/10 05:44:33;;;;;;;10.35;2.22;;;;;;;18.88;54.31;99955.50;4995422;28;20082;-74
2021/05/10 05:47:01;;;;;;;16.40;1.70;;;;;;;18.83;54.65;99995.22;4999794;28;20625;-74
2021/05/10 05:49:29;;;;;;;;;;;;;;;18.78;54.75;100014.44;5000084;28;20042;-74
2021/05/10 05:51:55;;;;;;;7.57;1.50;;;;;;;18.72;55.19;100029.41;4991117;28;19925;-75
2021/05/10 05:54:21;;;;;;;8.75;1.75;;;;;;;18.63;56.38;100017.44;4991270;28;20058;-75
2021/05/10 05:56:47;;;;;;;6.45;1.80;;;;;;;18.51;56.79;100030.63;4989881;28;20058;-74
2021/05/10 05:59:13;;;;;;;4.43;1.40;;;;;;;18.43;57.17;100038.88;5000762;28;20520;-74
2021/05/10 06:01:39;;;;;;;3.00;1.13;;;;;;;18.28;56.79;100038.38;4990629;28;20050;-74
2021/05/10 06:04:05;;;;;;;3.88;1.20;;;;;;;18.25;57.39;100049.41;5001786;28;20717;-75
2021/05/10 06:06:31;;;;;;;3.58;1.33;;;;;;;18.23;57.61;100051.47;4998356;28;20084;-75
2021/05/10 06:08:58;;;;;;;3.22;1.30;;;;;;;18.18;57.04;100068.06;4983820;28;20776;-75
2021/05/10 06:11:24;;;;;;;3.90;1.10;;;;;;;18.17;56.38;100085.03;4997854;28;20470;-75
2021/05/10 06:13:50;;;;;;;3.58;1.20;;;;;;;18.21;56.58;100066.78;4997534;28;20569;-74
2021/05/10 06:16:16;;;;;;;5.47;1.17;;;;;;;18.14;57.06;100088.09;4999688;28;20064;-75
2021/05/10 06:18:43;;;;;;;4.50;1.52;;;;;;;18.12;57.29;100098.91;4996853;28;20517;-75
2021/05/10 06:21:09;;;;;;;5.63;1.70;;;;;;;18.14;58.09;100118.09;4995230;28;20057;-75
2021/05/10 06:23:39;;;;;;;2.67;1.70;;;;;;;18.11;58.26;100110.56;5001013;28;20054;-75
2021/05/10 06:26:07;;;;;;;5.93;1.60;;;;;;;18.15;58.15;100114.41;4997807;28;20576;-74
2021/05/10 06:28:33;;;;;;;9.10;1.90;;;;;;;18.13;58.56;100134.22;5006684;28;20227;-74
2021/05/10 06:30:59;;;;;;;4.53;1.63;;;;;;;18.20;58.01;100126.22;4997582;28;20085;-74
2021/05/10 06:33:26;;;;;;;2.17;1.20;;;;;;;18.23;57.15;100145.22;5000293;28;20080;-75
2021/05/10 06:35:51;;;;;;;2.53;0.90;;;;;;;18.29;56.68;100147.00;4991266;28;20469;-74
2021/05/10 06:38:18;;;;;;;2.92;0.90;;;;;;;18.16;56.39;100144.41;4999803;28;20077;-74
2021/05/10 06:40:44;;;;;;;5.50;1.00;;;;;;;18.08;56.19;100150.78;4996091;28;20065;-73
2021/05/10 06:43:10;;;;;;;6.55;0.90;;;;;;;18.09;56.21;100136.50;4985538;28;20160;-74
2021/05/10 06:45:36;;;;;;;2.92;0.90;;;;;;;18.02;56.18;100140.22;5003520;28;20133;-74
2021/05/10 06:48:03;;;;;;;2.95;0.77;;;;;;;18.03;56.70;100142.63;5011357;28;20050;-76
2021/05/10 06:50:30;;;;;;;1.23;0.70;;;;;;;18.04;56.61;100148.78;4992968;28;20061;-75
2021/05/10 06:52:56;;;;;;;2.63;0.93;;;;;;;18.05;56.74;100167.13;5000688;28;20497;-75
2021/05/10 06:55:22;;;;;;;1.80;1.08;;;;;;;18.09;57.43;100170.16;4997759;28;20093;-74
2021/05/10 06:57:48;;;;;;;2.95;1.27;;;;;;;18.05;57.26;100177.75;5004002;28;20093;-74
2021/05/10 07:00:15;;;;;;;5.30;1.00;;;;;;;18.00;57.07;100163.50;4991924;28;20147;-75
2021/05/10 07:02:41;;;;;;;4.25;0.95;;;;;;;18.00;57.11;100174.91;5002233;28;20466;-74
2021/05/10 07:05:07;;;;;;;2.67;1.02;;;;;;;18.03;57.15;100155.91;4988781;28;20053;-74
2021/05/10 07:07:34;;;;;;;6.75;1.02;;;;;;;17.98;57.72;100158.41;5004367;28;20085;-74
2021/05/10 07:10:00;;;;;;;1.98;0.90;;;;;;;18.06;57.75;100158.16;5001931;28;20081;-76
2021/05/10 07:12:27;;;;;;;4.05;1.10;;;;;;;18.09;57.00;100176.31;4994101;28;20814;-74
2021/05/10 07:14:55;;;;;;;3.63;1.00;;;;;;;18.09;57.19;100172.81;5003542;28;20057;-74
2021/05/10 07:17:21;;;;;;;3.63;0.98;;;;;;;18.05;57.98;100169.78;4994790;28;20131;-75
2021/05/10 07:19:47;;;;;;;1.30;1.00;;;;;;;18.09;57.85;100173.66;4996362;28;20066;-74
2021/05/10 07:22:13;;;;;;;3.13;1.15;;;;;;;18.08;58.00;100166.72;4998935;28;20549;-73
2021/05/10 07:24:39;;;;;;;4.30;1.30;;;;;;;18.11;57.80;100179.56;5000627;28;20050;-74
2021/05/10 07:27:05;;;;;;;3.03;1.10;;;;;;;18.16;57.56;100194.84;5006720;28;20050;-75
2021/05/10 07:29:33;;;;;;;3.78;1.30;;;;;;;18.22;57.25;100186.03;4993468;28;20053;-74
2021/05/10 07:31:59;;;;;;;4.13;1.40;;;;;;;18.16;56.93;100197.50;5000901;28;20053;-76
2021/05/10 07:34:27;;;;;;;6.75;1.42;;;;;;;18.08;56.88;100201.22;4988080;28;20058;-74
2021/05/10 07:36:53;;;;;;;4.32;1.40;;;;;;;18.15;56.78;100204.66;4997641;28;20808;-73
2021/05/10 07:39:19;;;;;;;3.47;1.73;;;;;;;18.21;56.38;100204.81;4992506;28;20142;-74
2021/05/10 07:41:45;;;;;;;4.55;1.90;;;;;;;18.35;57.47;100215.19;5003874;28;20143;-74
2021/05/10 07:44:11;;;;;;;3.35;1.90;;;;;;;18.42;56.81;100209.81;4997531;28;20144;-72
2021/05/10 07:46:37;;;;;;;5.93;2.08;;;;;;;18.37;56.45;100226.41;4992813;28;20061;-73
2021/05/10 07:49:03;;;;;;;3.03;1.85;;;;;;;18.22;56.56;100243.63;4998686;28;20481;-73
2021/05/10 07:51:29;;;;;;;3.85;2.00;;;;;;;18.20;56.84;100254.44;4994210;28;20058;-73
2021/05/10 07:53:56;;;;;;;4.95;2.25;;;;;;;18.12;57.28;100260.81;4983062;28;20544;-74
2021/05/10 07:56:23;;;;;;;4.63;2.15;;;;;;;18.01;57.61;100261.44;4997005;28;20086;-73
2021/05/10 07:58:51;;;;;;;5.25;1.98;;;;;;;18.03;58.54;100277.16;4994844;28;20100;-74
2021/05/10 08:01:17;;;;;;;5.30;2.00;;;;;;;17.94;58.72;100261.47;4998179;28;20086;-72
2021/05/10 08:03:45;;;;;;;4.07;1.60;;;;;;;17.94;58.88;100263.31;4994394;28;20157;-74
2021/05/10 08:06:12;;;;;;;4.65;1.67;;;;;;;17.92;58.77;100278.63;5002472;28;20097;-74
2021/05/10 08:08:38;;;;;;;5.10;1.90;;;;;;;17.86;58.60;100277.63;4990391;28;20803;-74
2021/05/10 08:11:04;;;;;;;5.65;2.05;;;;;;;17.76;58.75;100285.97;4999980;28;20085;-74
2021/05/10 08:13:31;;;;;;;5.57;2.05;;;;;;;17.77;58.93;100270.88;4989026;28;20046;-73
2021/05/10 08:15:57;;;;;;;4.80;1.70;;;;;;;17.76;59.11;100267.41;4996265;28;20116;-73
2021/05/10 08:18:23;;;;;;;2.97;1.90;;;;;;;17.85;59.22;100254.75;4998288;28;20057;-73
2021/05/10 08:20:49;;;;;;;4.85;2.10;;;;;;;17.91;59.32;100258.41;4989872;28;20926;-73
2021/05/10 08:23:16;;;;;;;4.50;2.08;;;;;;;17.84;59.40;100276.19;4999538;28;20077;-71
2021/05/10 08:25:42;;;;;;;5.65;2.08;;;;;;;17.79;59.39;100284.75;4995749;28;20062;-73
2021/05/10 08:28:09;;;;;;;4.68;1.60;;;;;;;17.83;59.24;100283.31;4994797;28;20049;-73
2021/05/10 08:30:36;;;;;;;2.25;1.33;;;;;;;17.79;59.09;100290.84;4992507;28;20766;-73
2021/05/10 08:33:03;;;;;;;4.25;1.65;;;;;;;17.87;58.73;100289.84;4998102;28;20880;-72
2021/05/10 08:35:30;;;;;;;2.50;1.55;;;;;;;17.91;58.71;100291.06;4992020;28;20116;-73
2021/05/10 08:37:59;;;;;;;5.35;1.90;;;;;;;17.89;59.18;100298.41;4995332;28;20061;-73
2021/05/10 08:40:26;;;;;;;3.85;1.90;;;;;;;17.83;59.55;100307.19;4995495;28;20095;-72
2021/05/10 08:42:52;;;;;;;3.63;2.00;;;;;;;17.79;60.08;100327.19;4987546;28;20077;-74
2021/05/10 08:45:21;;;;;;;4.68;1.80;;;;;;;17.66;59.70;100327.19;4994238;28;20107;-74
2021/05/10 08:47:47;;;;;;;2.20;1.70;;;;;;;17.70;59.94;100331.91;4993501;28;20053;-72
2021/05/10 08:50:14;;;;;;;2.00;1.63;;;;;;;17.78;59.82;100331.69;4999005;28;20507;-72
2021/05/10 08:52:41;;;;;;;3.10;1.73;;;;;;;17.78;60.23;100344.13;5000521;28;20177;-73
2021/05/10 08:55:12;;;;;;;2.60;1.70;;;;;;;17.74;60.24;100345.56;4989607;28;20150;-73
2021/05/10 08:57:38;;;;;;;5.63;1.70;;;;;;;17.60;58.90;100344.72;4996071;28;20100;-74
2021/05/10 09:00:04;;;;;;;7.90;1.70;;;;;;;17.63;59.09;100356.78;4991511;28;20797;-74
2021/05/10 09:02:34;;;;;;;2.00;1.30;;;;;;;17.56;58.68;100362.06;5000646;28;20050;-73
2021/05/10 09:05:22;;;;;;;3.28;1.65;;;;;;;17.62;58.72;100369.25;4984885;28;20045;-73
2021/05/10 09:08:06;;;;;;;3.10;1.65;;;;;;;17.64;58.98;100380.47;4996661;28;20058;-74
2021/05/10 09:10:32;;;;;;;2.20;1.80;;;;;;;17.61;58.72;100386.16;4986521;28;20452;-73
2021/05/10 09:12:58;;;;;;;4.85;1.80;;;;;;;17.52;58.30;100385.56;4992383;28;20536;-73
2021/05/10 09:15:26;;;;;;;4.20;1.90;;;;;;;17.50;58.02;100400.81;4996444;28;20478;-73
2021/05/10 09:17:54;;;;;;;;;;;;;;;17.54;58.43;100396.78;4994416;28;20067;-73
2021/05/10 09:20:28;;;;;;;4.17;2.00;;;;;;;17.56;58.02;100397.38;4997521;28;19972;-73
2021/05/10 09:23:27;;;;;;;4.07;1.90;;;;;;;17.55;58.41;100400.22;5004690;28;20061;-73
2021/05/10 09:25:55;;;;;;;2.60;1.80;;;;;;;17.56;57.81;100397.38;4995366;28;20545;-73
2021/05/10 09:28:23;;;;;;;2.10;1.67;;;;;;;17.53;57.53;100397.78;4994285;28;20089;-72
2021/05/10 09:30:54;;;;;;;5.45;2.25;;;;;;;17.63;57.66;100393.91;4998887;28;20139;-72
2021/05/10 09:33:45;;;;;;;2.78;2.05;;;;;;;17.61;57.10;100399.41;4991176;28;20505;-73
2021/05/10 09:36:30;;;;;;;4.13;2.55;;;;;;;17.51;57.33;100383.09;4994893;28;20509;-72
2021/05/10 09:38:57;;;;;;;3.13;2.00;;;;;;;17.58;58.47;100395.34;4991314;28;20136;-72
2021/05/10 09:41:23;;;;;;;4.03;1.80;;;;;;;17.52;59.48;100413.88;4994331;28;20061;-73
2021/05/10 09:44:07;;;;;;;3.95;2.00;;;;;;;17.39;60.10;100406.75;4994918;28;20769;-72
2021/05/10 09:46:40;;;;;;;4.65;2.10;;;;;;;17.48;60.07;100412.66;4992421;28;20183;-73
2021/05/10 09:49:07;;;;;;;5.40;2.30;;;;;;;17.39;60.15;100417.34;4996292;28;20057;-73
2021/05/10 09:51:34;;;;;;;4.50;1.92;;;;;;;17.38;60.12;100439.56;4986929;28;20927;-72
2021/05/10 09:54:10;;;;;;;3.53;2.22;;;;;;;17.34;60.30;100452.38;4993732;28;20054;-72
2021/05/10 09:56:37;;;;;;;8.15;2.15;;;;;;;17.22;60.73;100443.41;4997417;28;20050;-72
2021/05/10 09:59:08;;;;;;;6.80;2.00;;;;;;;17.24;60.76;100433.41;4995104;28;20093;-72
2021/05/10 10:01:45;;;;;;;6.78;2.40;;;;;;;17.36;60.63;100454.84;4991554;28;20399;-73
2021/05/10 10:04:16;;;;;;;4.70;2.30;;;;;;;17.29;60.86;100449.53;5007320;28;20053;-72
2021/05/10 10:06:42;;;;;;;4.47;2.38;;;;;;;17.38;61.09;100466.88;4998743;28;20303;-72
2021/05/10 10:09:08;;;;;;;3.05;2.40;;;;;;;17.30;61.41;100459.13;4989658;28;20861;-72
2021/05/10 10:11:34;;;;;;;4.78;2.25;;;;;;;17.25;61.59;100469.50;5000005;28;20115;-72
2021/05/10 10:14:01;;;;;;;4.90;2.35;;;;;;;17.31;61.65;100474.00;4995546;28;20054;-72
2021/05/10 10:16:29;;;;;;;4.88;2.70;;;;;;;17.36;61.16;100484.81;4992270;28;20993;-73
2021/05/10 10:19:01;;;;;;;6.88;2.67;;;;;;;17.38;61.60;100487.28;4994908;28;20054;-74
2021/05/10 10:21:27;;;;;;;4.65;2.20;;;;;;;17.53;61.46;100509.16;4999427;28;20065;-74
2021/05/10 10:24:01;;;;;;;5.30;3.00;;;;;;;17.50;60.57;100511.38;4999154;28;20081;-71
2021/05/10 10:26:48;;;;;;;5.75;2.75;;;;;;;17.52;60.71;100488.13;4989456;28;20103;-74
2021/05/10 10:29:16;;;;;;;4.35;2.60;;;;;;;17.58;60.68;100488.16;4995317;28;20050;-71
2021/05/10 10:31:49;;;;;;;8.20;2.80;;;;;;;17.71;60.25;100497.97;4950692;28;20106;-73
2021/05/10 10:34:35;;;;;;;5.47;2.50;;;;;;;17.91;60.42;100506.00;4992861;28;20049;-72
2021/05/10 10:37:04;;;;;;;8.70;2.83;;;;;;;17.83;59.61;100489.44;4989766;28;20093;-72
2021/05/10 10:39:32;;;;;;;4.28;2.75;;;;;;;17.98;59.56;100513.97;4999278;28;20821;-71
2021/05/10 10:42:10;;;;;;;8.43;2.95;;;;;;;17.97;59.33;100512.31;4992269;28;20107;-72
2021/05/10 10:44:47;;;;;;;;;;;;;;;17.86;59.25;100531.53;4991810;28;20049;-73
2021/05/10 10:47:45;;;;;;;6.50;3.25;;;;;;;17.77;60.16;100526.34;4991737;28;20270;-71
2021/05/10 10:50:17;;;;;;;6.72;3.53;;;;;;;17.81;61.01;100524.09;4994966;28;20050;-73
2021/05/10 10:52:55;;;;;;;11.77;6.22;;;;;;;17.82;61.33;100524.91;4996091;28;20498;-72
2021/05/10 10:55:33;;;;;;;5.78;3.15;;;;;;;17.72;61.85;100530.59;4993349;28;20527;-72
2021/05/10 10:58:11;;;;;;;6.25;3.70;;;;;;;17.79;62.34;100531.44;4991426;28;20151;-72
2021/05/10 11:00:56;;;;;;;;;;;;;;;17.75;61.97;100533.69;4992147;28;20081;-71
2021/05/10 11:03:26;;;;;;;8.52;3.65;;;;;;;17.81;62.74;100540.03;5001993;28;20448;-72
2021/05/10 11:05:53;;;;;;;4.22;3.25;;;;;;;17.90;63.07;100541.50;4996691;28;20501;-72
2021/05/10 11:08:44;;;;;;;7.10;3.63;;;;;;;17.96;62.61;100540.72;5002703;28;20128;-73
2021/05/10 11:11:12;;;;;;;6.97;4.22;;;;;;;18.02;63.30;100532.97;5000859;28;20741;-72
2021/05/10 11:13:40;;;;;;;5.05;3.70;;;;;;;17.94;62.27;100545.41;4992641;28;20561;-73
2021/05/10 11:16:08;;;;;;;6.88;3.65;;;;;;;18.10;62.14;100559.31;4997205;28;20057;-73
2021/05/10 11:18:48;;;;;;;5.50;3.40;;;;;;;17.90;61.35;100564.59;4996247;28;20058;-73
2021/05/10 11:21:26;;;;;;;8.10;3.85;;;;;;;17.86;61.55;100579.28;5000729;28;20118;-73
2021/05/10 11:23:57;;;;;;;5.40;3.92;;;;;;;18.01;62.52;100585.19;4998165;28;20061;-72
2021/05/10 11:26:40;;;;;;;8.85;4.93;;;;;;;17.83;64.10;100599.00;4994728;28;20133;-73
2021/05/10 11:29:08;;;;;;;8.63;5.00;;;;;;;17.69;64.41;100607.94;5005064;28;20081;-73
2021/05/10 11:31:36;;;;;;;;;;;;;;;17.52;64.78;100607.47;4998433;28;20077;-74
2021/05/10 11:34:04;;;;;;;;;;;;;;;17.35;66.51;100610.44;5003720;28;19925;-73
2021/05/10 11:36:32;;;;;;;9.10;5.20;;;;;;;17.23;66.81;100621.78;4994289;28;20034;-73
2021/05/10 11:39:02;;;;;;;6.97;5.15;;;;;;;17.20;67.40;100634.41;4998226;28;20132;-72
2021/05/10 11:41:39;;;;;;;6.93;5.05;;;;;;;17.07;68.03;100629.06;4986574;28;20065;-73